Time;durP1;ratioP1;P1;durP2;ratioP2;P2;SDS_P1;SDS_P2;PMS_P1;PMS_P2;Temp;Humidity;BMP_temperature;BMP_pressure;BME280_temperature;BME280_humidity;BME280_pressure;Samples;Min_cycle;Max_cycle;Signal;HPM_P1;HPM_P2
2022/12/06 00:01:11;;;;;;;125.38;31.17;;;;;;;;;;5059564;28;20453;-81
2022/12/06 00:03:37;;;;;;;106.03;29.05;;;;;;;;;;5076402;28;20448;-80
2022/12/06 00:06:12;;;;;;;107.38;29.55;;;;;;;;;;5059400;28;20058;-80
2022/12/06 00:08:38;;;;;;;101.60;29.85;;;;;;;;;;5104701;28;20020;-82
2022/12/06 00:11:11;;;;;;;110.88;33.05;;;;;;;;;;5081630;28;20076;-80
2022/12/06 00:13:37;;;;;;;109.10;31.10;;;;;;;;;;5092476;28;20073;-79
2022/12/06 00:16:03;;;;;;;116.70;31.65;;;;;;;;;;5059068;28;20032;-80
2022/12/06 00:18:30;;;;;;;102.32;28.83;;;;;;;;;;5093881;28;20090;-80
2022/12/06 00:20:55;;;;;;;97.88;29.30;;;;;;;;;;5093791;28;20461;-80
2022/12/06 00:23:21;;;;;;;93.47;28.85;;;;;;;;;;5058975;28;20032;-80
2022/12/06 00:25:47;;;;;;;97.57;27.73;;;;;;;;;;5075966;28;20025;-80
2022/12/06 00:28:12;;;;;;;111.07;30.27;;;;;;;;;;5060336;28;20046;-79
2022/12/06 00:30:38;;;;;;;107.57;28.65;;;;;;;;;;5100601;28;20457;-80
2022/12/06 00:33:03;;;;;;;104.22;29.77;;;;;;;;;;5093493;28;20058;-80
2022/12/06 00:35:28;;;;;;;100.97;29.10;;;;;;;;;;5075619;28;20020;-80
2022/12/06 00:37:54;;;;;;;103.63;28.25;;;;;;;;;;5092401;28;20028;-80
2022/12/06 00:40:19;;;;;;;95.20;28.38;;;;;;;;;;5059116;28;20131;-80
2022/12/06 00:42:45;;;;;;;99.13;28.45;;;;;;;;;;5094007;28;20059;-81
2022/12/06 00:45:11;;;;;;;97.97;28.25;;;;;;;;;;5062394;28;20028;-80
2022/12/06 00:47:36;;;;;;;96.32;26.73;;;;;;;;;;5100222;28;20060;-80
2022/12/06 00:50:02;;;;;;;95.10;27.05;;;;;;;;;;5066072;28;20099;-80
2022/12/06 00:52:27;;;;;;;93.32;28.40;;;;;;;;;;5084724;28;20406;-80
2022/12/06 00:54:53;;;;;;;93.50;29.50;;;;;;;;;;5097183;28;20965;-80
2022/12/06 00:57:18;;;;;;;91.57;28.15;;;;;;;;;;5079059;28;20520;-79
2022/12/06 00:59:44;;;;;;;97.78;28.63;;;;;;;;;;5097136;28;20024;-80
2022/12/06 01:02:09;;;;;;;110.78;30.80;;;;;;;;;;5097006;28;20032;-80
2022/12/06 01:04:35;;;;;;;93.15;27.92;;;;;;;;;;5062367;28;20105;-80
2022/12/06 01:07:01;;;;;;;98.22;29.67;;;;;;;;;;5081193;28;20118;-80
2022/12/06 01:09:29;;;;;;;94.15;28.13;;;;;;;;;;5096681;28;20123;-80
2022/12/06 01:11:56;;;;;;;106.38;30.85;;;;;;;;;;5086125;28;20035;-82
2022/12/06 01:14:21;;;;;;;99.72;28.80;;;;;;;;;;5061905;28;20130;-79
2022/12/06 01:16:47;;;;;;;98.47;28.33;;;;;;;;;;5096740;28;20497;-80
2022/12/06 01:19:12;;;;;;;102.30;28.83;;;;;;;;;;5061691;28;20036;-79
2022/12/06 01:21:38;;;;;;;103.82;30.70;;;;;;;;;;5096549;28;20077;-80
2022/12/06 01:24:04;;;;;;;103.22;29.02;;;;;;;;;;5096292;28;20036;-80
2022/12/06 01:26:30;;;;;;;86.78;25.02;;;;;;;;;;5078777;28;20032;-81
2022/12/06 01:28:57;;;;;;;109.47;29.98;;;;;;;;;;5061738;28;20036;-80
2022/12/06 01:31:22;;;;;;;97.10;27.25;;;;;;;;;;5062699;28;20453;-79
2022/12/06 01:33:48;;;;;;;101.35;28.55;;;;;;;;;;5084874;28;20036;-80
2022/12/06 01:36:24;;;;;;;95.95;28.50;;;;;;;;;;5061449;28;20040;-80
2022/12/06 01:38:53;;;;;;;99.55;29.80;;;;;;;;;;5094591;28;20031;-80
2022/12/06 01:41:19;;;;;;;98.65;28.30;;;;;;;;;;5077990;28;20024;-80
2022/12/06 01:43:45;;;;;;;96.50;28.50;;;;;;;;;;5096296;28;20453;-79
2022/12/06 01:46:31;;;;;;;96.68;28.88;;;;;;;;;;5096080;28;20115;-80
2022/12/06 01:49:11;;;;;;;103.75;28.25;;;;;;;;;;5078384;28;20032;-80
2022/12/06 01:51:37;;;;;;;;;;;;;;;;;;5062399;28;20381;-80
2022/12/06 01:54:03;;;;;;;98.10;26.77;;;;;;;;;;5066621;28;19919;-80
2022/12/06 01:56:29;;;;;;;100.75;27.58;;;;;;;;;;5061052;28;20052;-80
2022/12/06 01:58:55;;;;;;;87.88;26.33;;;;;;;;;;5095747;28;20538;-80
2022/12/06 02:01:21;;;;;;;93.28;27.83;;;;;;;;;;5077800;28;20047;-79
2022/12/06 02:03:47;;;;;;;92.22;28.42;;;;;;;;;;5061275;28;20072;-80
2022/12/06 02:06:12;;;;;;;90.05;26.42;;;;;;;;;;5060975;28;20114;-80
2022/12/06 02:08:38;;;;;;;90.65;26.52;;;;;;;;;;5077321;28;20501;-80
2022/12/06 02:11:03;;;;;;;89.25;25.25;;;;;;;;;;5077643;28;20443;-80
2022/12/06 02:13:29;;;;;;;90.82;26.50;;;;;;;;;;5045856;28;20043;-79
2022/12/06 02:16:04;;;;;;;95.55;26.90;;;;;;;;;;5079221;28;20028;-80
2022/12/06 02:18:34;;;;;;;85.13;25.20;;;;;;;;;;5095420;28;20028;-79
2022/12/06 02:21:25;;;;;;;96.80;26.75;;;;;;;;;;5077770;28;20024;-79
2022/12/06 02:24:10;;;;;;;105.75;29.13;;;;;;;;;;5095340;28;20370;-80
2022/12/06 02:26:39;;;;;;;91.32;26.02;;;;;;;;;;5060670;28;20032;-80
2022/12/06 02:29:24;;;;;;;98.82;26.67;;;;;;;;;;5077384;28;20034;-80
2022/12/06 02:31:56;;;;;;;98.53;27.13;;;;;;;;;;5077494;28;20404;-80
2022/12/06 02:34:53;;;;;;;95.93;27.33;;;;;;;;;;5079111;28;20376;-80
2022/12/06 02:37:21;;;;;;;90.50;25.88;;;;;;;;;;5063529;28;20054;-80
2022/12/06 02:40:06;;;;;;;99.55;27.88;;;;;;;;;;5059372;28;20028;-80
2022/12/06 02:42:34;;;;;;;88.78;24.75;;;;;;;;;;5077133;28;20465;-80
2022/12/06 02:45:08;;;;;;;105.05;26.83;;;;;;;;;;5077332;28;20031;-80
2022/12/06 02:47:35;;;;;;;88.90;27.40;;;;;;;;;;5060173;28;20020;-80
2022/12/06 02:50:02;;;;;;;84.35;24.63;;;;;;;;;;5076965;28;20020;-81
2022/12/06 02:55:11;;;;;;;82.82;24.15;;;;;;;;;;5066856;28;20035;-80
2022/12/06 02:57:44;;;;;;;70.53;22.90;;;;;;;;;;5061747;28;20032;-78
2022/12/06 03:00:29;;;;;;;72.18;24.00;;;;;;;;;;5076742;28;20041;-79
2022/12/06 03:03:06;;;;;;;68.63;22.98;;;;;;;;;;5060176;28;20028;-80
2022/12/06 03:06:01;;;;;;;72.63;23.23;;;;;;;;;;5077244;28;20442;-79
2022/12/06 03:08:55;;;;;;;72.85;23.23;;;;;;;;;;5065006;28;20110;-80
2022/12/06 03:11:20;;;;;;;78.38;23.77;;;;;;;;;;5079362;28;20411;-80
2022/12/06 03:14:07;;;;;;;77.45;25.02;;;;;;;;;;5087976;28;20061;-82
2022/12/06 03:16:49;;;;;;;76.65;23.08;;;;;;;;;;5087400;28;20024;-80
2022/12/06 03:19:19;;;;;;;75.68;22.73;;;;;;;;;;5064992;28;20035;-80
2022/12/06 03:22:03;;;;;;;73.15;23.52;;;;;;;;;;5059610;28;20028;-79
2022/12/06 03:24:30;;;;;;;74.63;22.60;;;;;;;;;;5076425;28;20380;-80
2022/12/06 03:26:56;;;;;;;80.65;23.92;;;;;;;;;;5076475;28;20031;-80
2022/12/06 03:29:22;;;;;;;75.18;24.63;;;;;;;;;;5059802;28;20024;-80
2022/12/06 03:31:47;;;;;;;68.28;23.23;;;;;;;;;;5059664;28;20034;-80
2022/12/06 03:34:15;;;;;;;67.60;21.75;;;;;;;;;;5043205;28;20023;-80
2022/12/06 03:36:42;;;;;;;71.70;22.60;;;;;;;;;;5068078;28;20043;-80
2022/12/06 03:39:08;;;;;;;67.75;21.90;;;;;;;;;;5080985;28;20028;-80
2022/12/06 03:41:39;;;;;;;74.28;24.17;;;;;;;;;;5059383;28;20523;-80
2022/12/06 03:44:24;;;;;;;71.30;24.17;;;;;;;;;;5075090;28;20027;-80
2022/12/06 03:46:52;;;;;;;77.80;23.80;;;;;;;;;;5058880;28;20114;-80
2022/12/06 03:49:25;;;;;;;70.15;22.70;;;;;;;;;;5075717;28;20028;-80
2022/12/06 03:51:50;;;;;;;67.28;22.52;;;;;;;;;;5076312;28;20138;-80
2022/12/06 03:54:16;;;;;;;77.50;24.35;;;;;;;;;;5059319;28;20059;-79
2022/12/06 03:56:41;;;;;;;68.20;23.52;;;;;;;;;;5059205;28;20028;-79
2022/12/06 03:59:08;;;;;;;65.65;21.92;;;;;;;;;;5063286;28;20020;-80
2022/12/06 04:01:33;;;;;;;66.45;21.98;;;;;;;;;;5075864;28;20468;-80
2022/12/06 04:03:58;;;;;;;63.53;22.98;;;;;;;;;;5093975;28;20032;-80
2022/12/06 04:06:24;;;;;;;68.85;23.73;;;;;;;;;;5059121;28;20016;-79
2022/12/06 04:08:49;;;;;;;73.80;23.58;;;;;;;;;;5093701;28;20085;-80
2022/12/06 04:11:15;;;;;;;78.32;26.38;;;;;;;;;;5075810;28;20056;-80
2022/12/06 04:13:40;;;;;;;69.40;23.98;;;;;;;;;;5076277;28;20024;-79
2022/12/06 04:18:50;;;;;;;70.00;23.92;;;;;;;;;;5082998;28;20069;-79
2022/12/06 04:23:56;;;;;;;;;;;;;;;;;;5082415;28;20486;-80
2022/12/06 04:26:22;;;;;;;66.00;21.10;;;;;;;;;;5079643;28;20011;-80
2022/12/06 04:39:43;;;;;;;72.57;24.20;;;;;;;;;;5069665;28;20030;-79
2022/12/06 04:44:53;;;;;;;85.90;26.95;;;;;;;;;;5096183;28;20031;-80
2022/12/06 04:47:18;;;;;;;88.25;31.60;;;;;;;;;;5097000;28;20024;-80
2022/12/06 04:49:44;;;;;;;79.78;26.90;;;;;;;;;;5079113;28;20030;-80
2022/12/06 04:52:09;;;;;;;84.90;25.70;;;;;;;;;;5097235;28;20043;-80
2022/12/06 04:54:35;;;;;;;79.35;25.75;;;;;;;;;;5079110;28;20065;-80
2022/12/06 04:57:00;;;;;;;95.90;32.33;;;;;;;;;;5079446;28;20024;-80
2022/12/06 04:59:26;;;;;;;80.15;26.48;;;;;;;;;;5096939;28;20028;-80
2022/12/06 05:01:52;;;;;;;80.18;25.45;;;;;;;;;;5049304;28;20032;-80
2022/12/06 05:04:17;;;;;;;76.32;24.35;;;;;;;;;;5079029;28;20338;-80
2022/12/06 05:06:43;;;;;;;71.78;23.40;;;;;;;;;;5062099;28;20047;-79
2022/12/06 05:09:08;;;;;;;71.05;22.60;;;;;;;;;;5078819;28;20406;-79
2022/12/06 05:11:34;;;;;;;73.75;23.63;;;;;;;;;;5062346;28;20429;-80
2022/12/06 05:13:59;;;;;;;80.57;23.92;;;;;;;;;;5076816;28;20020;-79
2022/12/06 05:16:27;;;;;;;63.22;22.17;;;;;;;;;;5078020;28;20029;-84
2022/12/06 05:18:53;;;;;;;65.05;20.77;;;;;;;;;;5096240;28;20028;-79
2022/12/06 05:21:20;;;;;;;66.45;19.70;;;;;;;;;;5063202;28;20030;-78
2022/12/06 05:23:45;;;;;;;64.25;19.20;;;;;;;;;;5078921;28;20050;-79
2022/12/06 05:26:13;;;;;;;69.35;20.60;;;;;;;;;;5078310;28;20035;-78
2022/12/06 05:28:38;;;;;;;61.92;19.92;;;;;;;;;;5077414;28;20032;-79
2022/12/06 05:31:04;;;;;;;67.28;20.90;;;;;;;;;;5078081;28;20111;-79
2022/12/06 05:33:29;;;;;;;60.10;19.75;;;;;;;;;;5078864;28;20031;-80
2022/12/06 05:35:55;;;;;;;65.55;20.42;;;;;;;;;;5077551;28;20044;-79
2022/12/06 05:38:21;;;;;;;78.45;22.88;;;;;;;;;;5078006;28;20118;-78
2022/12/06 05:40:46;;;;;;;66.07;20.42;;;;;;;;;;5061285;28;20066;-79
2022/12/06 05:43:12;;;;;;;63.42;19.40;;;;;;;;;;5043309;28;20100;-79
2022/12/06 05:45:37;;;;;;;64.68;19.70;;;;;;;;;;5081953;28;20031;-78
2022/12/06 05:48:03;;;;;;;61.85;19.42;;;;;;;;;;5078194;28;20027;-78
2022/12/06 05:50:29;;;;;;;58.17;19.35;;;;;;;;;;5081764;28;20024;-78
2022/12/06 05:52:55;;;;;;;52.15;16.70;;;;;;;;;;5090538;28;20047;-77
2022/12/06 05:55:20;;;;;;;58.35;20.40;;;;;;;;;;5072313;28;20669;-79
2022/12/06 05:57:49;;;;;;;60.05;19.85;;;;;;;;;;5067399;28;20036;-79
2022/12/06 06:00:16;;;;;;;56.80;19.52;;;;;;;;;;5069696;28;20043;-80
2022/12/06 06:02:41;;;;;;;61.72;20.08;;;;;;;;;;5095694;28;20060;-77
2022/12/06 06:05:07;;;;;;;62.50;18.92;;;;;;;;;;5052582;28;20451;-76
2022/12/06 06:07:36;;;;;;;63.05;20.63;;;;;;;;;;5089415;28;20028;-78
2022/12/06 06:10:02;;;;;;;63.05;20.38;;;;;;;;;;5072396;28;20029;-77
2022/12/06 06:12:27;;;;;;;58.92;18.70;;;;;;;;;;5083244;28;20040;-76
2022/12/06 06:14:53;;;;;;;55.03;18.80;;;;;;;;;;5044330;28;20039;-76
2022/12/06 06:17:18;;;;;;;62.03;20.10;;;;;;;;;;5070382;28;20044;-79
2022/12/06 06:19:44;;;;;;;57.28;18.27;;;;;;;;;;5061166;28;20130;-78
2022/12/06 06:22:09;;;;;;;60.97;19.50;;;;;;;;;;5080995;28;20522;-78
2022/12/06 06:24:38;;;;;;;58.47;20.88;;;;;;;;;;5075476;28;20050;-75
2022/12/06 06:27:04;;;;;;;54.88;19.65;;;;;;;;;;5068644;28;20059;-78
2022/12/06 06:29:29;;;;;;;50.85;17.65;;;;;;;;;;5082373;28;20059;-80
2022/12/06 06:31:55;;;;;;;53.08;18.48;;;;;;;;;;5045992;28;20028;-78
2022/12/06 06:34:20;;;;;;;52.88;19.45;;;;;;;;;;5075226;28;20131;-81
2022/12/06 06:36:46;;;;;;;58.42;19.77;;;;;;;;;;5075710;28;20432;-79
2022/12/06 06:39:12;;;;;;;53.33;19.40;;;;;;;;;;5049562;28;20030;-78
2022/12/06 06:41:37;;;;;;;61.53;19.75;;;;;;;;;;5064545;28;20027;-77
2022/12/06 06:44:03;;;;;;;56.10;18.67;;;;;;;;;;5087434;28;20028;-77
2022/12/06 06:46:28;;;;;;;62.00;22.33;;;;;;;;;;5099818;28;20114;-78
2022/12/06 06:48:54;;;;;;;63.97;19.73;;;;;;;;;;5077936;28;20126;-77
2022/12/06 06:51:19;;;;;;;49.72;17.98;;;;;;;;;;5081382;28;20100;-77
2022/12/06 06:53:44;;;;;;;58.97;19.17;;;;;;;;;;5066098;28;20643;-76
2022/12/06 06:56:16;;;;;;;62.13;20.42;;;;;;;;;;5091953;28;20481;-77
2022/12/06 06:58:42;;;;;;;55.08;19.60;;;;;;;;;;5086677;28;20058;-79
2022/12/06 07:01:08;;;;;;;60.47;21.27;;;;;;;;;;5076623;28;20035;-76
2022/12/06 07:03:34;;;;;;;54.15;19.05;;;;;;;;;;5067995;28;20445;-75
2022/12/06 07:06:02;;;;;;;53.20;18.00;;;;;;;;;;5072067;28;20119;-76
2022/12/06 07:08:28;;;;;;;51.28;17.55;;;;;;;;;;5088805;28;20453;-77
2022/12/06 07:10:54;;;;;;;53.97;21.13;;;;;;;;;;5072184;28;20114;-76
2022/12/06 07:13:21;;;;;;;50.17;17.38;;;;;;;;;;5089613;28;20120;-75
2022/12/06 07:15:46;;;;;;;46.10;17.67;;;;;;;;;;5070911;28;20449;-77
2022/12/06 07:18:12;;;;;;;56.05;20.33;;;;;;;;;;5068521;28;20028;-78
2022/12/06 07:20:37;;;;;;;52.15;18.92;;;;;;;;;;5089023;28;20101;-77
2022/12/06 07:23:03;;;;;;;56.63;20.08;;;;;;;;;;5070808;28;20044;-76
2022/12/06 07:25:30;;;;;;;64.20;21.27;;;;;;;;;;5093088;28;20032;-78
2022/12/06 07:27:57;;;;;;;62.83;20.77;;;;;;;;;;5092627;28;20032;-78
2022/12/06 07:30:22;;;;;;;64.78;21.60;;;;;;;;;;5071956;28;20035;-77
2022/12/06 07:32:48;;;;;;;59.65;21.42;;;;;;;;;;5066887;28;20028;-77
2022/12/06 07:35:13;;;;;;;53.75;20.65;;;;;;;;;;5074283;28;20051;-75
2022/12/06 07:37:43;;;;;;;50.50;20.20;;;;;;;;;;5094506;28;20093;-80
2022/12/06 07:40:09;;;;;;;55.65;20.67;;;;;;;;;;5098406;28;20047;-79
2022/12/06 07:45:19;;;;;;;50.67;18.85;;;;;;;;;;5081020;28;20500;-78
2022/12/06 07:47:44;;;;;;;54.65;19.85;;;;;;;;;;5117764;28;20023;-76
2022/12/06 07:50:14;;;;;;;47.38;18.30;;;;;;;;;;5081429;28;20689;-76
2022/12/06 07:52:40;;;;;;;52.88;18.98;;;;;;;;;;5049303;28;20091;-78
2022/12/06 07:55:07;;;;;;;55.20;21.02;;;;;;;;;;5099256;28;20035;-79
2022/12/06 07:57:32;;;;;;;51.58;20.75;;;;;;;;;;5103369;28;20035;-78
2022/12/06 08:00:01;;;;;;;42.40;17.70;;;;;;;;;;5095953;28;20032;-78
2022/12/06 08:02:27;;;;;;;39.40;16.73;;;;;;;;;;5056605;28;20051;-78
2022/12/06 08:04:53;;;;;;;43.88;17.45;;;;;;;;;;5080731;28;20399;-76
2022/12/06 08:07:19;;;;;;;45.65;17.42;;;;;;;;;;5092464;28;20032;-78
2022/12/06 08:09:44;;;;;;;41.53;16.73;;;;;;;;;;5066918;28;20102;-78
2022/12/06 08:12:10;;;;;;;42.65;15.65;;;;;;;;;;5074069;28;20093;-77
2022/12/06 08:14:36;;;;;;;42.70;16.70;;;;;;;;;;5109549;28;20027;-79
2022/12/06 08:17:02;;;;;;;38.38;16.17;;;;;;;;;;5056094;28;20444;-78
2022/12/06 08:19:28;;;;;;;37.33;15.10;;;;;;;;;;5056593;28;20466;-78
2022/12/06 08:21:53;;;;;;;32.47;14.15;;;;;;;;;;5068012;28;20038;-76
2022/12/06 08:24:20;;;;;;;37.47;15.23;;;;;;;;;;5064613;28;20031;-80
2022/12/06 08:26:45;;;;;;;36.55;15.20;;;;;;;;;;5057073;28;20043;-78
2022/12/06 08:29:17;;;;;;;33.88;14.32;;;;;;;;;;5086875;28;20024;-77
2022/12/06 08:31:44;;;;;;;34.15;14.20;;;;;;;;;;5070568;28;20024;-75
2022/12/06 08:34:09;;;;;;;34.45;13.95;;;;;;;;;;5062662;28;20601;-79
2022/12/06 08:36:36;;;;;;;33.05;13.43;;;;;;;;;;5072310;28;20500;-78
2022/12/06 08:39:02;;;;;;;33.67;13.75;;;;;;;;;;5097379;28;20088;-77
2022/12/06 08:44:12;;;;;;;34.25;14.00;;;;;;;;;;5098865;28;20104;-77
2022/12/06 08:46:39;;;;;;;34.38;14.90;;;;;;;;;;5108140;28;20557;-78
2022/12/06 08:49:04;;;;;;;37.00;15.45;;;;;;;;;;5108061;28;20068;-79
2022/12/06 08:51:30;;;;;;;38.15;15.85;;;;;;;;;;5090578;28;20051;-77
2022/12/06 08:53:58;;;;;;;43.05;17.23;;;;;;;;;;5083375;28;20036;-77
2022/12/06 08:56:24;;;;;;;44.03;17.65;;;;;;;;;;5083888;28;20027;-77
2022/12/06 08:58:51;;;;;;;44.10;18.55;;;;;;;;;;5092024;28;20456;-78
2022/12/06 09:01:18;;;;;;;32.83;15.63;;;;;;;;;;5102030;28;20024;-78
2022/12/06 09:03:44;;;;;;;42.40;17.70;;;;;;;;;;5065692;28;20036;-78
2022/12/06 09:06:10;;;;;;;42.13;16.63;;;;;;;;;;5070303;28;20040;-79
2022/12/06 09:08:36;;;;;;;55.45;20.33;;;;;;;;;;5090981;28;20051;-78
2022/12/06 09:11:02;;;;;;;45.95;17.17;;;;;;;;;;5081489;28;20090;-78
2022/12/06 09:13:27;;;;;;;39.17;16.35;;;;;;;;;;5040409;28;20025;-78
2022/12/06 09:15:53;;;;;;;35.15;14.68;;;;;;;;;;5094333;28;20035;-78
2022/12/06 09:18:18;;;;;;;35.20;15.93;;;;;;;;;;5075232;28;20123;-79
2022/12/06 09:20:44;;;;;;;41.67;16.67;;;;;;;;;;5079974;28;20054;-79
2022/12/06 09:23:09;;;;;;;38.75;16.55;;;;;;;;;;5073974;28;20495;-77
2022/12/06 09:25:34;;;;;;;41.55;17.83;;;;;;;;;;5074574;28;20295;-78
2022/12/06 09:28:00;;;;;;;39.38;16.35;;;;;;;;;;5093423;28;20121;-78
2022/12/06 09:30:25;;;;;;;39.60;14.43;;;;;;;;;;5059794;28;20032;-78
2022/12/06 09:32:52;;;;;;;46.47;16.73;;;;;;;;;;5077960;28;20120;-77
2022/12/06 09:35:18;;;;;;;56.47;19.23;;;;;;;;;;5095508;28;20092;-77
2022/12/06 09:37:45;;;;;;;39.50;16.88;;;;;;;;;;5096842;28;20465;-77
2022/12/06 09:40:19;;;;;;;41.53;16.08;;;;;;;;;;5082204;28;20034;-78
2022/12/06 09:43:08;;;;;;;46.25;16.35;;;;;;;;;;5078979;28;20480;-78
2022/12/06 09:45:34;;;;;;;41.60;16.70;;;;;;;;;;5095045;28;20154;-78
2022/12/06 09:48:18;;;;;;;45.05;17.20;;;;;;;;;;5097077;28;20466;-78
2022/12/06 09:51:05;;;;;;;46.03;17.63;;;;;;;;;;5095768;28;20047;-79
2022/12/06 09:53:49;;;;;;;37.22;15.10;;;;;;;;;;5073699;28;20020;-78
2022/12/06 09:56:49;;;;;;;40.03;15.43;;;;;;;;;;5090377;28;20175;-76
2022/12/06 09:59:44;;;;;;;32.60;15.23;;;;;;;;;;5093604;28;20069;-78
2022/12/06 10:02:33;;;;;;;44.63;17.27;;;;;;;;;;5058378;28;20047;-79
2022/12/06 10:05:17;;;;;;;39.58;17.02;;;;;;;;;;5054662;28;20025;-79
2022/12/06 10:08:23;;;;;;;39.10;17.33;;;;;;;;;;5070435;28;20351;-76
2022/12/06 10:10:55;;;;;;;49.70;21.33;;;;;;;;;;5056731;28;20040;-78
2022/12/06 10:13:34;;;;;;;44.83;18.35;;;;;;;;;;5072000;28;20028;-78
2022/12/06 10:16:09;;;;;;;40.45;17.73;;;;;;;;;;5058132;28;20048;-78
2022/12/06 10:18:34;;;;;;;36.35;15.90;;;;;;;;;;5093986;28;20051;-78
2022/12/06 10:21:18;;;;;;;39.13;17.25;;;;;;;;;;5076997;28;20032;-79
2022/12/06 10:23:49;;;;;;;37.00;16.92;;;;;;;;;;5094905;28;20073;-78
2022/12/06 10:26:16;;;;;;;51.50;19.40;;;;;;;;;;5093630;28;20097;-80
2022/12/06 10:28:54;;;;;;;38.88;16.85;;;;;;;;;;5076310;28;20517;-79
2022/12/06 10:31:24;;;;;;;40.97;16.83;;;;;;;;;;5077650;28;20036;-78
2022/12/06 10:34:05;;;;;;;38.00;16.77;;;;;;;;;;5076224;28;20118;-79
2022/12/06 10:36:34;;;;;;;40.08;17.75;;;;;;;;;;5060105;28;20064;-78
2022/12/06 10:39:08;;;;;;;40.13;17.92;;;;;;;;;;5061179;28;20036;-78
2022/12/06 10:41:42;;;;;;;36.92;17.58;;;;;;;;;;5064528;28;20032;-80
2022/12/06 10:44:58;;;;;;;44.97;20.00;;;;;;;;;;5083836;28;20061;-80
2022/12/06 10:47:28;;;;;;;37.10;15.73;;;;;;;;;;5007569;28;20430;-80
2022/12/06 10:50:06;;;;;;;34.80;15.80;;;;;;;;;;4992110;28;20030;-81
2022/12/06 10:52:37;;;;;;;36.20;16.23;;;;;;;;;;5043379;28;20130;-79
2022/12/06 10:55:09;;;;;;;40.13;15.43;;;;;;;;;;5089219;28;20020;-78
2022/12/06 10:57:45;;;;;;;36.42;16.17;;;;;;;;;;5072748;28;20032;-79
2022/12/06 11:00:22;;;;;;;39.78;15.93;;;;;;;;;;5073227;28;20057;-78
2022/12/06 11:02:56;;;;;;;37.90;17.13;;;;;;;;;;5074331;28;20034;-79
2022/12/06 11:05:33;;;;;;;44.45;17.08;;;;;;;;;;5094939;28;20034;-80
2022/12/06 11:08:17;;;;;;;37.60;17.70;;;;;;;;;;5075065;28;20016;-76
2022/12/06 11:10:44;;;;;;;36.97;16.70;;;;;;;;;;5074244;28;20120;-78
2022/12/06 11:13:54;;;;;;;37.40;17.08;;;;;;;;;;5073651;28;20442;-79
2022/12/06 11:16:35;;;;;;;;;;;;;;;;;;5064843;28;20433;-77
2022/12/06 11:19:30;;;;;;;47.22;18.08;;;;;;;;;;5075180;28;20009;-78
2022/12/06 11:22:16;;;;;;;41.47;17.52;;;;;;;;;;5044773;28;20028;-80
2022/12/06 11:24:46;;;;;;;44.13;17.80;;;;;;;;;;5051306;28;20415;-78
2022/12/06 11:27:21;;;;;;;37.53;17.00;;;;;;;;;;5076377;28;20073;-78
2022/12/06 11:29:47;;;;;;;41.58;16.60;;;;;;;;;;5075045;28;20114;-79
2022/12/06 11:32:12;;;;;;;38.22;16.42;;;;;;;;;;5055018;28;20060;-80
2022/12/06 11:34:40;;;;;;;31.33;15.15;;;;;;;;;;5057905;28;20059;-79
2022/12/06 11:37:06;;;;;;;36.58;16.00;;;;;;;;;;5073157;28;20222;-77
2022/12/06 11:39:32;;;;;;;37.38;15.32;;;;;;;;;;5039467;28;20118;-80
2022/12/06 11:41:59;;;;;;;27.42;13.55;;;;;;;;;;5071264;28;20032;-80
2022/12/06 11:44:27;;;;;;;30.20;14.55;;;;;;;;;;5062656;28;20038;-79
2022/12/06 11:46:57;;;;;;;31.88;14.70;;;;;;;;;;5068056;28;20108;-79
2022/12/06 11:49:43;;;;;;;45.53;21.15;;;;;;;;;;5059974;28;20036;-79
2022/12/06 11:52:32;;;;;;;31.67;16.00;;;;;;;;;;5070658;28;20154;-79
2022/12/06 11:55:06;;;;;;;30.10;15.60;;;;;;;;;;5041051;28;20036;-77
2022/12/06 11:57:45;;;;;;;25.17;13.48;;;;;;;;;;5071504;28;20031;-79
2022/12/06 12:00:16;;;;;;;30.45;14.70;;;;;;;;;;5093808;28;20027;-80
2022/12/06 12:02:43;;;;;;;42.85;22.73;;;;;;;;;;5109555;28;20092;-78
2022/12/06 12:05:15;;;;;;;38.40;19.27;;;;;;;;;;5085942;28;20063;-78
2022/12/06 12:07:41;;;;;;;27.50;13.10;;;;;;;;;;5089374;28;20660;-79
2022/12/06 12:10:36;;;;;;;25.45;14.43;;;;;;;;;;5072636;28;20024;-78
2022/12/06 12:16:14;;;;;;;21.52;11.57;;;;;;;;;;5061666;28;20488;-79
2022/12/06 12:18:42;;;;;;;23.77;13.35;;;;;;;;;;5092333;28;20028;-79
2022/12/06 12:21:07;;;;;;;27.55;13.95;;;;;;;;;;5059084;28;20483;-79
2022/12/06 12:23:34;;;;;;;23.33;12.85;;;;;;;;;;5093402;28;20074;-80
2022/12/06 12:26:04;;;;;;;48.03;22.77;;;;;;;;;;5074704;28;20081;-79
2022/12/06 12:28:31;;;;;;;46.85;22.58;;;;;;;;;;5074894;28;20042;-79
2022/12/06 12:30:58;;;;;;;35.25;17.88;;;;;;;;;;5042287;28;20029;-79
2022/12/06 12:33:27;;;;;;;32.65;17.33;;;;;;;;;;5084541;28;20078;-80
2022/12/06 12:35:54;;;;;;;34.67;18.37;;;;;;;;;;5072023;28;20040;-79
2022/12/06 12:38:19;;;;;;;33.17;17.77;;;;;;;;;;5045369;28;20117;-79
2022/12/06 12:40:47;;;;;;;31.70;17.30;;;;;;;;;;5074219;28;20446;-79
2022/12/06 12:43:28;;;;;;;32.30;16.67;;;;;;;;;;5057594;28;20036;-81
2022/12/06 12:46:08;;;;;;;;;;;;;;;;;;5057358;28;20350;-78
2022/12/06 12:48:34;;;;;;;35.35;17.77;;;;;;;;;;5074985;28;19912;-78
2022/12/06 12:51:02;;;;;;;50.28;25.05;;;;;;;;;;5059387;28;20055;-80
2022/12/06 12:53:30;;;;;;;40.38;21.20;;;;;;;;;;5073216;28;20032;-83
2022/12/06 12:56:17;;;;;;;39.83;20.70;;;;;;;;;;5071748;28;20623;-80
2022/12/06 12:58:43;;;;;;;38.50;19.13;;;;;;;;;;5055019;28;20107;-81
2022/12/06 13:01:43;;;;;;;42.17;19.20;;;;;;;;;;5074080;28;20502;-81
2022/12/06 13:04:17;;;;;;;51.97;24.38;;;;;;;;;;5015183;28;20032;-82
2022/12/06 13:06:46;;;;;;;41.55;19.90;;;;;;;;;;5041985;28;20189;-79
2022/12/06 13:09:28;;;;;;;35.85;17.73;;;;;;;;;;5075325;28;20033;-80
2022/12/06 13:12:04;;;;;;;33.00;17.50;;;;;;;;;;5060245;28;20028;-78
2022/12/06 13:14:30;;;;;;;33.75;17.02;;;;;;;;;;5042706;28;20070;-78
2022/12/06 13:16:57;;;;;;;34.92;16.98;;;;;;;;;;5058369;28;20082;-78
2022/12/06 13:19:38;;;;;;;37.75;18.20;;;;;;;;;;5058359;28;20031;-77
2022/12/06 13:22:03;;;;;;;;;;;;;;;;;;5058848;28;20043;-78
2022/12/06 13:24:30;;;;;;;37.90;18.27;;;;;;;;;;5058488;28;19912;-78
2022/12/06 13:27:15;;;;;;;43.20;19.20;;;;;;;;;;5058554;28;20032;-77
2022/12/06 13:30:13;;;;;;;39.72;19.70;;;;;;;;;;5058325;28;20082;-80
2022/12/06 13:32:42;;;;;;;50.13;20.60;;;;;;;;;;5075953;28;20047;-78
2022/12/06 13:35:24;;;;;;;80.93;25.73;;;;;;;;;;5074976;28;20025;-79
2022/12/06 13:38:20;;;;;;;35.97;18.02;;;;;;;;;;5059377;28;20024;-79
2022/12/06 13:40:47;;;;;;;39.80;20.30;;;;;;;;;;5058235;28;20447;-79
2022/12/06 13:43:22;;;;;;;65.38;27.85;;;;;;;;;;5075961;28;20081;-78
2022/12/06 13:45:48;;;;;;;51.00;24.45;;;;;;;;;;5090290;28;20036;-78
2022/12/06 13:48:22;;;;;;;40.45;19.35;;;;;;;;;;5077051;28;20077;-79
2022/12/06 13:50:53;;;;;;;61.28;32.30;;;;;;;;;;5094725;28;20600;-79
2022/12/06 13:53:19;;;;;;;43.38;21.83;;;;;;;;;;5068163;28;20050;-79
2022/12/06 13:55:51;;;;;;;32.97;17.58;;;;;;;;;;5077938;28;20103;-80
2022/12/06 13:58:17;;;;;;;36.92;19.63;;;;;;;;;;5077902;28;20430;-80
2022/12/06 14:00:42;;;;;;;38.75;20.42;;;;;;;;;;5095842;28;20028;-79
2022/12/06 14:03:17;;;;;;;46.78;23.40;;;;;;;;;;5095798;28;20035;-80
2022/12/06 14:06:01;;;;;;;48.47;24.00;;;;;;;;;;5094735;28;20431;-79
2022/12/06 14:08:43;;;;;;;45.08;21.63;;;;;;;;;;5075599;28;20429;-80
2022/12/06 14:11:14;;;;;;;45.42;23.70;;;;;;;;;;5076202;28;20039;-80
2022/12/06 14:13:44;;;;;;;44.92;23.00;;;;;;;;;;5097654;28;20020;-80
2022/12/06 14:16:16;;;;;;;38.72;20.70;;;;;;;;;;5085658;28;20028;-79
2022/12/06 14:18:41;;;;;;;40.92;20.85;;;;;;;;;;5061057;28;20361;-80
2022/12/06 14:21:19;;;;;;;46.50;22.92;;;;;;;;;;5095482;28;20024;-79
2022/12/06 14:23:46;;;;;;;38.45;20.48;;;;;;;;;;5061760;28;20028;-80
2022/12/06 14:26:13;;;;;;;39.47;20.73;;;;;;;;;;5077524;28;20074;-79
2022/12/06 14:28:39;;;;;;;42.08;21.77;;;;;;;;;;5094812;28;20073;-79
2022/12/06 14:31:05;;;;;;;47.78;22.85;;;;;;;;;;5095665;28;20406;-79
2022/12/06 14:33:31;;;;;;;42.92;22.88;;;;;;;;;;5060754;28;20062;-79
2022/12/06 14:35:57;;;;;;;48.15;24.50;;;;;;;;;;5064006;28;20028;-79
2022/12/06 14:38:27;;;;;;;49.03;25.60;;;;;;;;;;5094971;28;20028;-79
2022/12/06 14:43:37;;;;;;;34.50;18.42;;;;;;;;;;5094860;28;20089;-80
2022/12/06 14:46:04;;;;;;;37.88;21.02;;;;;;;;;;5060387;28;20118;-79
2022/12/06 14:50:22;;;;;;;46.97;23.70;;;;;;;;;;5060426;28;20067;-79
2022/12/06 14:51:21;;;;;;;50.03;27.30;;;;;;;;;;5066131;28;20036;-79
2022/12/06 14:53:47;;;;;;;44.03;23.13;;;;;;;;;;5076961;28;20342;-79
2022/12/06 14:56:32;;;;;;;46.20;24.23;;;;;;;;;;5085940;28;20024;-79
2022/12/06 14:58:57;;;;;;;52.15;26.23;;;;;;;;;;5080392;28;20373;-79
2022/12/06 15:01:25;;;;;;;42.00;22.25;;;;;;;;;;5059786;28;20020;-79
2022/12/06 15:04:01;;;;;;;43.90;21.50;;;;;;;;;;5076496;28;20067;-80
2022/12/06 15:06:28;;;;;;;53.97;26.52;;;;;;;;;;5094559;28;20108;-80
2022/12/06 15:08:57;;;;;;;57.88;27.95;;;;;;;;;;5076546;28;20130;-78